This is the latest recevied weather packets stored in our database for station/object KF6YUA. If no packets are shown the sender has not sent any weather packets the latest 1 day(s).
| Time | Temp. | Humidity | Pressure | Rain* | Wind** | Luminosity | Snow |
|---|---|---|---|---|---|---|---|
| 1778024194 | 17.22° C | 74% | 1017.3 hPa | 0 mm | 0 m/s | 391 W/m² | - |
| 1778023892 | 16.67° C | 76% | 1017.2 hPa | 0 mm | 0.45 m/s, 180° | 263 W/m² | - |
| 1778023589 | 16.67° C | 75% | 1017.2 hPa | 0 mm | 2.24 m/s, 177° | 204 W/m² | - |
| 1778023286 | 17.22° C | 76% | 1017 hPa | 0 mm | 0 m/s | 269 W/m² | - |
| 1778022983 | 16.67° C | 75% | 1017.3 hPa | 0 mm | 1.34 m/s, 186° | 231 W/m² | - |
| 1778022682 | 16.67° C | 75% | 1017.1 hPa | 0 mm | 2.24 m/s, 247° | 201 W/m² | - |
| 1778022380 | 17.78° C | 74% | 1017.2 hPa | 0 mm | 1.34 m/s, 190° | 214 W/m² | - |
| 1778022075 | 18.89° C | 71% | 1017.1 hPa | 0 mm | 1.79 m/s, 176° | 321 W/m² | - |
| 1778021772 | 18.89° C | 74% | 1017.2 hPa | 0 mm | 0.89 m/s, 144° | 446 W/m² | - |
| 1778021468 | 17.78° C | 74% | 1017.3 hPa | 0 mm | 0 m/s | 275 W/m² | - |
| 1778021165 | 17.78° C | 75% | 1017.3 hPa | 0 mm | 0 m/s | 223 W/m² | - |
| 1778020862 | 17.78° C | 75% | 1017.2 hPa | 0 mm | 0 m/s | 220 W/m² | - |
| 1778020560 | 17.78° C | 75% | 1017.5 hPa | 0 mm | 0.89 m/s, 90° | 262 W/m² | - |
| 1778020256 | 17.78° C | 74% | 1017.3 hPa | 0 mm | 1.34 m/s, 206° | 252 W/m² | - |
| 1778019952 | 18.33° C | 73% | 1017.3 hPa | 0 mm | 0 m/s | 270 W/m² | - |
| 1778019648 | 18.89° C | 74% | 1017.4 hPa | 0 mm | 0 m/s | 429 W/m² | - |
| 1778019346 | 18.33° C | 75% | 1017.5 hPa | 0 mm | 0 m/s | 312 W/m² | - |
| 1778019042 | 18.33° C | 75% | 1017.3 hPa | 0 mm | 0 m/s | 311 W/m² | - |
| 1778018739 | 18.33° C | 74% | 1017.3 hPa | 0 mm | 0.89 m/s, 180° | 395 W/m² | - |
| 1778018437 | 18.89° C | 74% | 1017.2 hPa | 0 mm | 0.45 m/s, 180° | 368 W/m² | - |
| 1778018135 | 18.89° C | 73% | 1017.4 hPa | 0 mm | 0 m/s | 385 W/m² | - |
| 1778017832 | 18.89° C | 74% | 1017.6 hPa | 0 mm | 0 m/s | 423 W/m² | - |
| 1778017530 | 18.33° C | 73% | 1017.5 hPa | 0 mm | 0.45 m/s, 180° | 394 W/m² | - |
| 1778017227 | 18.89° C | 72% | 1017.4 hPa | 0 mm | 0 m/s | 330 W/m² | - |
| 1778016925 | 18.33° C | 72% | 1017.5 hPa | 0 mm | 0.45 m/s, 157° | 352 W/m² | - |
* Rain latest hour (hover to see other rain measurements)
** Current wind speed in m/s (hover to see current wind gust speed)